sensor_id;sensor_type;location;lat;lon;timestamp;P1;durP1;ratioP1;P2;durP2;ratioP2
74867;SDS011;63419;42.262;12.210;2023-03-15T00:00:05;12.95;;;2.30;;
74867;SDS011;63419;42.262;12.210;2023-03-15T00:02:38;9.73;;;2.15;;
74867;SDS011;63419;42.262;12.210;2023-03-15T00:05:09;12.30;;;2.60;;
74867;SDS011;63419;42.262;12.210;2023-03-15T00:07:38;9.85;;;1.85;;
74867;SDS011;63419;42.262;12.210;2023-03-15T00:10:07;11.27;;;2.00;;
74867;SDS011;63419;42.262;12.210;2023-03-15T00:12:37;11.38;;;2.15;;
74867;SDS011;63419;42.262;12.210;2023-03-15T00:15:09;11.93;;;2.60;;
74867;SDS011;63419;42.262;12.210;2023-03-15T00:17:41;10.48;;;1.65;;
74867;SDS011;63419;42.262;12.210;2023-03-15T00:20:10;9.00;;;1.98;;
74867;SDS011;63419;42.262;12.210;2023-03-15T00:22:40;9.95;;;1.73;;
74867;SDS011;63419;42.262;12.210;2023-03-15T00:25:26;9.50;;;1.98;;
74867;SDS011;63419;42.262;12.210;2023-03-15T00:27:54;8.52;;;1.90;;
74867;SDS011;63419;42.262;12.210;2023-03-15T00:30:21;11.43;;;2.05;;
74867;SDS011;63419;42.262;12.210;2023-03-15T00:32:50;12.45;;;1.95;;
74867;SDS011;63419;42.262;12.210;2023-03-15T00:35:21;11.50;;;2.13;;
74867;SDS011;63419;42.262;12.210;2023-03-15T00:37:53;10.43;;;1.95;;
74867;SDS011;63419;42.262;12.210;2023-03-15T00:40:22;9.88;;;2.10;;
74867;SDS011;63419;42.262;12.210;2023-03-15T00:42:50;11.15;;;2.15;;
74867;SDS011;63419;42.262;12.210;2023-03-15T00:45:19;14.07;;;2.70;;
74867;SDS011;63419;42.262;12.210;2023-03-15T00:47:48;10.07;;;1.95;;
74867;SDS011;63419;42.262;12.210;2023-03-15T00:50:17;13.93;;;2.95;;
74867;SDS011;63419;42.262;12.210;2023-03-15T00:52:44;11.80;;;3.22;;
74867;SDS011;63419;42.262;12.210;2023-03-15T00:55:12;10.05;;;1.92;;
74867;SDS011;63419;42.262;12.210;2023-03-15T00:57:43;12.60;;;5.85;;
74867;SDS011;63419;42.262;12.210;2023-03-15T01:00:14;11.82;;;2.28;;
74867;SDS011;63419;42.262;12.210;2023-03-15T01:02:53;7.00;;;1.20;;
74867;SDS011;63419;42.262;12.210;2023-03-15T01:05:21;10.27;;;1.45;;
74867;SDS011;63419;42.262;12.210;2023-03-15T01:07:50;13.88;;;1.70;;
74867;SDS011;63419;42.262;12.210;2023-03-15T01:10:18;9.25;;;1.83;;
74867;SDS011;63419;42.262;12.210;2023-03-15T01:12:45;7.85;;;1.70;;
74867;SDS011;63419;42.262;12.210;2023-03-15T01:15:13;6.28;;;1.50;;
74867;SDS011;63419;42.262;12.210;2023-03-15T01:17:42;9.20;;;1.50;;
74867;SDS011;63419;42.262;12.210;2023-03-15T01:20:11;8.65;;;1.75;;
74867;SDS011;63419;42.262;12.210;2023-03-15T01:22:40;10.82;;;1.85;;
74867;SDS011;63419;42.262;12.210;2023-03-15T01:25:08;8.73;;;2.70;;
74867;SDS011;63419;42.262;12.210;2023-03-15T01:30:03;8.63;;;1.30;;
74867;SDS011;63419;42.262;12.210;2023-03-15T01:32:32;13.30;;;1.75;;
74867;SDS011;63419;42.262;12.210;2023-03-15T01:35:00;7.45;;;1.30;;
74867;SDS011;63419;42.262;12.210;2023-03-15T01:37:27;6.63;;;1.23;;
74867;SDS011;63419;42.262;12.210;2023-03-15T01:39:54;5.60;;;1.05;;
74867;SDS011;63419;42.262;12.210;2023-03-15T01:42:22;7.18;;;0.93;;
74867;SDS011;63419;42.262;12.210;2023-03-15T01:44:53;9.15;;;0.80;;
74867;SDS011;63419;42.262;12.210;2023-03-15T01:47:25;13.18;;;1.15;;
74867;SDS011;63419;42.262;12.210;2023-03-15T01:50:14;17.45;;;1.13;;
74867;SDS011;63419;42.262;12.210;2023-03-15T01:52:41;7.65;;;0.73;;
74867;SDS011;63419;42.262;12.210;2023-03-15T01:55:14;5.95;;;0.60;;
74867;SDS011;63419;42.262;12.210;2023-03-15T01:57:55;14.90;;;1.02;;
74867;SDS011;63419;42.262;12.210;2023-03-15T02:00:26;9.18;;;0.88;;
74867;SDS011;63419;42.262;12.210;2023-03-15T02:02:55;9.02;;;1.00;;
74867;SDS011;63419;42.262;12.210;2023-03-15T02:05:33;8.27;;;0.90;;
74867;SDS011;63419;42.262;12.210;2023-03-15T02:08:11;12.10;;;0.80;;
74867;SDS011;63419;42.262;12.210;2023-03-15T02:10:44;5.25;;;1.05;;
74867;SDS011;63419;42.262;12.210;2023-03-15T02:15:50;6.32;;;0.80;;
74867;SDS011;63419;42.262;12.210;2023-03-15T02:18:19;12.77;;;0.60;;
74867;SDS011;63419;42.262;12.210;2023-03-15T02:23:29;5.28;;;0.52;;
74867;SDS011;63419;42.262;12.210;2023-03-15T02:28:43;6.68;;;0.70;;
74867;SDS011;63419;42.262;12.210;2023-03-15T02:31:12;8.18;;;0.90;;
74867;SDS011;63419;42.262;12.210;2023-03-15T02:33:42;11.80;;;1.20;;
74867;SDS011;63419;42.262;12.210;2023-03-15T02:38:49;5.85;;;0.73;;
74867;SDS011;63419;42.262;12.210;2023-03-15T02:41:18;15.75;;;0.88;;
74867;SDS011;63419;42.262;12.210;2023-03-15T02:44:13;8.35;;;0.68;;
74867;SDS011;63419;42.262;12.210;2023-03-15T02:46:41;6.47;;;0.63;;
74867;SDS011;63419;42.262;12.210;2023-03-15T02:49:14;6.35;;;0.73;;
74867;SDS011;63419;42.262;12.210;2023-03-15T02:51:44;7.53;;;0.90;;
74867;SDS011;63419;42.262;12.210;2023-03-15T02:54:11;6.00;;;1.10;;
74867;SDS011;63419;42.262;12.210;2023-03-15T02:56:38;7.63;;;1.27;;
74867;SDS011;63419;42.262;12.210;2023-03-15T03:01:33;6.88;;;1.33;;
74867;SDS011;63419;42.262;12.210;2023-03-15T03:04:02;11.57;;;1.35;;
74867;SDS011;63419;42.262;12.210;2023-03-15T03:06:30;8.52;;;1.08;;
74867;SDS011;63419;42.262;12.210;2023-03-15T03:08:57;5.88;;;0.82;;
74867;SDS011;63419;42.262;12.210;2023-03-15T03:11:24;4.30;;;0.63;;
74867;SDS011;63419;42.262;12.210;2023-03-15T03:13:52;12.23;;;1.85;;
74867;SDS011;63419;42.262;12.210;2023-03-15T03:16:19;11.70;;;1.05;;
74867;SDS011;63419;42.262;12.210;2023-03-15T03:18:48;9.48;;;1.20;;
74867;SDS011;63419;42.262;12.210;2023-03-15T03:21:16;10.48;;;0.77;;
74867;SDS011;63419;42.262;12.210;2023-03-15T03:26:12;3.78;;;0.80;;
74867;SDS011;63419;42.262;12.210;2023-03-15T03:28:44;10.70;;;0.88;;
74867;SDS011;63419;42.262;12.210;2023-03-15T03:31:19;3.05;;;0.55;;
74867;SDS011;63419;42.262;12.210;2023-03-15T03:33:51;5.72;;;0.43;;
74867;SDS011;63419;42.262;12.210;2023-03-15T03:36:20;10.93;;;1.05;;
74867;SDS011;63419;42.262;12.210;2023-03-15T03:38:50;7.50;;;0.55;;
74867;SDS011;63419;42.262;12.210;2023-03-15T03:41:19;8.15;;;1.00;;
74867;SDS011;63419;42.262;12.210;2023-03-15T03:43:46;11.75;;;1.00;;
74867;SDS011;63419;42.262;12.210;2023-03-15T03:46:14;9.18;;;0.68;;
74867;SDS011;63419;42.262;12.210;2023-03-15T03:48:41;10.95;;;0.80;;
74867;SDS011;63419;42.262;12.210;2023-03-15T03:51:08;4.15;;;0.70;;
74867;SDS011;63419;42.262;12.210;2023-03-15T03:53:36;5.70;;;0.63;;
74867;SDS011;63419;42.262;12.210;2023-03-15T03:56:04;3.05;;;0.57;;
74867;SDS011;63419;42.262;12.210;2023-03-15T03:58:33;10.50;;;0.73;;
74867;SDS011;63419;42.262;12.210;2023-03-15T04:01:00;7.15;;;0.70;;
74867;SDS011;63419;42.262;12.210;2023-03-15T04:03:27;6.53;;;1.02;;
74867;SDS011;63419;42.262;12.210;2023-03-15T04:05:57;7.60;;;0.93;;
74867;SDS011;63419;42.262;12.210;2023-03-15T04:08:25;16.77;;;1.10;;
74867;SDS011;63419;42.262;12.210;2023-03-15T04:10:53;5.35;;;0.52;;
74867;SDS011;63419;42.262;12.210;2023-03-15T04:13:23;4.38;;;0.60;;
74867;SDS011;63419;42.262;12.210;2023-03-15T04:15:51;7.78;;;1.00;;
74867;SDS011;63419;42.262;12.210;2023-03-15T04:18:23;13.00;;;1.20;;
74867;SDS011;63419;42.262;12.210;2023-03-15T04:20:50;14.30;;;0.75;;
74867;SDS011;63419;42.262;12.210;2023-03-15T04:23:21;5.38;;;0.82;;
74867;SDS011;63419;42.262;12.210;2023-03-15T04:25:50;4.38;;;0.73;;
74867;SDS011;63419;42.262;12.210;2023-03-15T04:28:25;12.55;;;2.05;;
74867;SDS011;63419;42.262;12.210;2023-03-15T04:30:52;10.40;;;1.25;;
74867;SDS011;63419;42.262;12.210;2023-03-15T04:33:24;9.82;;;2.10;;
74867;SDS011;63419;42.262;12.210;2023-03-15T04:35:52;8.07;;;1.77;;
74867;SDS011;63419;42.262;12.210;2023-03-15T04:38:20;7.55;;;2.10;;
74867;SDS011;63419;42.262;12.210;2023-03-15T04:40:52;9.60;;;2.35;;
74867;SDS011;63419;42.262;12.210;2023-03-15T04:43:20;8.25;;;1.85;;
74867;SDS011;63419;42.262;12.210;2023-03-15T04:45:49;7.20;;;2.05;;
74867;SDS011;63419;42.262;12.210;2023-03-15T04:48:17;8.20;;;1.70;;
74867;SDS011;63419;42.262;12.210;2023-03-15T04:50:44;5.70;;;1.95;;
74867;SDS011;63419;42.262;12.210;2023-03-15T04:53:11;7.88;;;2.10;;
74867;SDS011;63419;42.262;12.210;2023-03-15T04:55:38;5.75;;;1.90;;
74867;SDS011;63419;42.262;12.210;2023-03-15T04:58:05;8.45;;;1.50;;
74867;SDS011;63419;42.262;12.210;2023-03-15T05:00:33;7.25;;;1.65;;
74867;SDS011;63419;42.262;12.210;2023-03-15T05:03:00;10.15;;;2.45;;
74867;SDS011;63419;42.262;12.210;2023-03-15T05:05:27;4.07;;;1.33;;
74867;SDS011;63419;42.262;12.210;2023-03-15T05:07:54;7.38;;;1.85;;
74867;SDS011;63419;42.262;12.210;2023-03-15T05:10:21;9.93;;;2.53;;
74867;SDS011;63419;42.262;12.210;2023-03-15T05:12:49;10.57;;;1.88;;
74867;SDS011;63419;42.262;12.210;2023-03-15T05:15:17;4.88;;;1.33;;
74867;SDS011;63419;42.262;12.210;2023-03-15T05:17:44;11.13;;;1.13;;
74867;SDS011;63419;42.262;12.210;2023-03-15T05:20:12;9.20;;;2.00;;
74867;SDS011;63419;42.262;12.210;2023-03-15T05:22:43;6.22;;;1.35;;
74867;SDS011;63419;42.262;12.210;2023-03-15T05:25:10;10.40;;;1.88;;
74867;SDS011;63419;42.262;12.210;2023-03-15T05:27:38;10.52;;;1.33;;
74867;SDS011;63419;42.262;12.210;2023-03-15T05:30:05;9.05;;;1.17;;
74867;SDS011;63419;42.262;12.210;2023-03-15T05:32:34;7.82;;;0.93;;
74867;SDS011;63419;42.262;12.210;2023-03-15T05:35:05;8.55;;;1.35;;
74867;SDS011;63419;42.262;12.210;2023-03-15T05:37:35;14.93;;;2.78;;
74867;SDS011;63419;42.262;12.210;2023-03-15T05:40:04;4.10;;;0.82;;
74867;SDS011;63419;42.262;12.210;2023-03-15T05:42:37;9.38;;;1.05;;
74867;SDS011;63419;42.262;12.210;2023-03-15T05:45:04;7.57;;;1.20;;
74867;SDS011;63419;42.262;12.210;2023-03-15T05:47:33;6.10;;;1.85;;
74867;SDS011;63419;42.262;12.210;2023-03-15T05:50:00;10.27;;;1.67;;
74867;SDS011;63419;42.262;12.210;2023-03-15T05:52:30;10.07;;;1.75;;
74867;SDS011;63419;42.262;12.210;2023-03-15T05:54:57;8.38;;;1.25;;
74867;SDS011;63419;42.262;12.210;2023-03-15T05:57:24;7.57;;;0.80;;
74867;SDS011;63419;42.262;12.210;2023-03-15T05:59:52;6.55;;;0.93;;
74867;SDS011;63419;42.262;12.210;2023-03-15T06:02:20;5.28;;;1.35;;
74867;SDS011;63419;42.262;12.210;2023-03-15T06:04:47;8.48;;;1.45;;
74867;SDS011;63419;42.262;12.210;2023-03-15T06:07:14;9.30;;;1.75;;
74867;SDS011;63419;42.262;12.210;2023-03-15T06:09:42;8.80;;;2.05;;
74867;SDS011;63419;42.262;12.210;2023-03-15T06:12:09;6.68;;;1.35;;
74867;SDS011;63419;42.262;12.210;2023-03-15T06:14:36;8.70;;;1.20;;
74867;SDS011;63419;42.262;12.210;2023-03-15T06:17:04;10.60;;;1.85;;
74867;SDS011;63419;42.262;12.210;2023-03-15T06:19:32;10.73;;;1.80;;
74867;SDS011;63419;42.262;12.210;2023-03-15T06:22:00;12.57;;;1.90;;
74867;SDS011;63419;42.262;12.210;2023-03-15T06:24:28;8.90;;;0.95;;
74867;SDS011;63419;42.262;12.210;2023-03-15T06:26:55;12.18;;;1.70;;
74867;SDS011;63419;42.262;12.210;2023-03-15T06:31:50;12.77;;;2.10;;
74867;SDS011;63419;42.262;12.210;2023-03-15T06:34:19;8.30;;;1.40;;
74867;SDS011;63419;42.262;12.210;2023-03-15T06:36:46;10.80;;;2.22;;
74867;SDS011;63419;42.262;12.210;2023-03-15T06:39:15;7.50;;;1.27;;
74867;SDS011;63419;42.262;12.210;2023-03-15T06:41:42;11.60;;;2.20;;
74867;SDS011;63419;42.262;12.210;2023-03-15T06:44:09;8.65;;;2.33;;
74867;SDS011;63419;42.262;12.210;2023-03-15T06:46:37;6.72;;;1.80;;
74867;SDS011;63419;42.262;12.210;2023-03-15T06:49:05;7.65;;;1.92;;
74867;SDS011;63419;42.262;12.210;2023-03-15T06:53:59;14.88;;;3.50;;
74867;SDS011;63419;42.262;12.210;2023-03-15T06:56:26;7.10;;;1.58;;
74867;SDS011;63419;42.262;12.210;2023-03-15T07:01:21;5.40;;;1.05;;
74867;SDS011;63419;42.262;12.210;2023-03-15T07:03:48;7.45;;;1.30;;
74867;SDS011;63419;42.262;12.210;2023-03-15T07:06:15;5.28;;;1.38;;
74867;SDS011;63419;42.262;12.210;2023-03-15T07:08:43;6.60;;;1.27;;
74867;SDS011;63419;42.262;12.210;2023-03-15T07:11:10;6.43;;;1.10;;
74867;SDS011;63419;42.262;12.210;2023-03-15T07:13:38;6.47;;;1.15;;
74867;SDS011;63419;42.262;12.210;2023-03-15T07:18:33;6.20;;;1.13;;
74867;SDS011;63419;42.262;12.210;2023-03-15T07:21:01;10.18;;;2.00;;
74867;SDS011;63419;42.262;12.210;2023-03-15T07:23:30;5.80;;;1.23;;
74867;SDS011;63419;42.262;12.210;2023-03-15T07:25:57;9.40;;;0.70;;
74867;SDS011;63419;42.262;12.210;2023-03-15T07:28:25;2.70;;;0.50;;
74867;SDS011;63419;42.262;12.210;2023-03-15T07:31:00;7.43;;;1.50;;
74867;SDS011;63419;42.262;12.210;2023-03-15T07:33:30;4.68;;;1.25;;
74867;SDS011;63419;42.262;12.210;2023-03-15T07:36:00;6.22;;;1.50;;
74867;SDS011;63419;42.262;12.210;2023-03-15T07:38:29;5.95;;;0.70;;
74867;SDS011;63419;42.262;12.210;2023-03-15T07:40:59;4.53;;;1.10;;
74867;SDS011;63419;42.262;12.210;2023-03-15T07:43:28;4.30;;;1.38;;
74867;SDS011;63419;42.262;12.210;2023-03-15T07:48:26;5.32;;;1.15;;
74867;SDS011;63419;42.262;12.210;2023-03-15T07:50:55;3.20;;;0.70;;
74867;SDS011;63419;42.262;12.210;2023-03-15T07:53:22;9.98;;;4.40;;
74867;SDS011;63419;42.262;12.210;2023-03-15T07:55:49;7.43;;;1.30;;
74867;SDS011;63419;42.262;12.210;2023-03-15T07:58:17;2.60;;;0.63;;
74867;SDS011;63419;42.262;12.210;2023-03-15T08:00:45;5.85;;;1.63;;
74867;SDS011;63419;42.262;12.210;2023-03-15T08:03:13;6.07;;;1.08;;
74867;SDS011;63419;42.262;12.210;2023-03-15T08:05:42;6.20;;;1.45;;
74867;SDS011;63419;42.262;12.210;2023-03-15T08:08:09;17.27;;;7.78;;
74867;SDS011;63419;42.262;12.210;2023-03-15T08:10:37;5.05;;;1.23;;
74867;SDS011;63419;42.262;12.210;2023-03-15T08:15:31;2.78;;;0.60;;
74867;SDS011;63419;42.262;12.210;2023-03-15T08:24:55;2.58;;;0.50;;
74867;SDS011;63419;42.262;12.210;2023-03-15T08:30:49;2.38;;;0.63;;
74867;SDS011;63419;42.262;12.210;2023-03-15T08:33:17;2.88;;;0.30;;
74867;SDS011;63419;42.262;12.210;2023-03-15T08:39:19;3.55;;;0.90;;
74867;SDS011;63419;42.262;12.210;2023-03-15T08:41:49;2.30;;;0.35;;
74867;SDS011;63419;42.262;12.210;2023-03-15T08:44:16;3.17;;;0.73;;
74867;SDS011;63419;42.262;12.210;2023-03-15T08:46:44;1.90;;;0.30;;
74867;SDS011;63419;42.262;12.210;2023-03-15T08:49:11;2.05;;;0.30;;
74867;SDS011;63419;42.262;12.210;2023-03-15T08:51:38;2.92;;;0.47;;
74867;SDS011;63419;42.262;12.210;2023-03-15T08:54:06;4.25;;;0.63;;
74867;SDS011;63419;42.262;12.210;2023-03-15T08:56:34;1.13;;;0.20;;
74867;SDS011;63419;42.262;12.210;2023-03-15T08:59:01;2.42;;;0.40;;
74867;SDS011;63419;42.262;12.210;2023-03-15T09:01:28;2.38;;;0.60;;
74867;SDS011;63419;42.262;12.210;2023-03-15T09:03:55;1.85;;;0.20;;
74867;SDS011;63419;42.262;12.210;2023-03-15T09:09:17;3.95;;;0.60;;
74867;SDS011;63419;42.262;12.210;2023-03-15T09:17:56;2.83;;;0.45;;
74867;SDS011;63419;42.262;12.210;2023-03-15T09:23:46;2.83;;;0.68;;
74867;SDS011;63419;42.262;12.210;2023-03-15T09:26:14;1.80;;;0.28;;
74867;SDS011;63419;42.262;12.210;2023-03-15T09:28:41;3.00;;;0.20;;
74867;SDS011;63419;42.262;12.210;2023-03-15T09:31:08;3.35;;;0.60;;
74867;SDS011;63419;42.262;12.210;2023-03-15T09:41:57;5.25;;;0.40;;
74867;SDS011;63419;42.262;12.210;2023-03-15T09:47:00;2.63;;;0.40;;
74867;SDS011;63419;42.262;12.210;2023-03-15T09:49:50;2.17;;;0.30;;
74867;SDS011;63419;42.262;12.210;2023-03-15T09:52:57;2.03;;;0.30;;
74867;SDS011;63419;42.262;12.210;2023-03-15T09:55:37;2.72;;;0.40;;
74867;SDS011;63419;42.262;12.210;2023-03-15T10:01:57;6.30;;;0.50;;
74867;SDS011;63419;42.262;12.210;2023-03-15T10:08:39;2.40;;;0.35;;
74867;SDS011;63419;42.262;12.210;2023-03-15T10:11:11;2.80;;;0.40;;
74867;SDS011;63419;42.262;12.210;2023-03-15T10:16:46;1.88;;;0.50;;
74867;SDS011;63419;42.262;12.210;2023-03-15T10:21:57;2.40;;;0.50;;
74867;SDS011;63419;42.262;12.210;2023-03-15T10:24:52;2.78;;;0.40;;
74867;SDS011;63419;42.262;12.210;2023-03-15T10:27:58;2.47;;;0.30;;
74867;SDS011;63419;42.262;12.210;2023-03-15T10:30:32;1.63;;;0.52;;
74867;SDS011;63419;42.262;12.210;2023-03-15T10:33:15;1.45;;;0.20;;
74867;SDS011;63419;42.262;12.210;2023-03-15T10:35:58;2.53;;;0.50;;
74867;SDS011;63419;42.262;12.210;2023-03-15T10:38:36;2.13;;;0.40;;
74867;SDS011;63419;42.262;12.210;2023-03-15T10:41:04;1.60;;;0.50;;
74867;SDS011;63419;42.262;12.210;2023-03-15T10:43:35;1.35;;;0.30;;
74867;SDS011;63419;42.262;12.210;2023-03-15T10:46:09;1.70;;;0.40;;
74867;SDS011;63419;42.262;12.210;2023-03-15T10:48:58;1.63;;;0.40;;
74867;SDS011;63419;42.262;12.210;2023-03-15T10:51:29;1.98;;;0.43;;
74867;SDS011;63419;42.262;12.210;2023-03-15T10:54:15;1.17;;;0.40;;
74867;SDS011;63419;42.262;12.210;2023-03-15T10:57:10;2.25;;;0.43;;
74867;SDS011;63419;42.262;12.210;2023-03-15T10:59:52;1.27;;;0.20;;
74867;SDS011;63419;42.262;12.210;2023-03-15T11:02:24;1.65;;;0.22;;
74867;SDS011;63419;42.262;12.210;2023-03-15T11:04:59;2.55;;;0.38;;
74867;SDS011;63419;42.262;12.210;2023-03-15T11:07:55;1.75;;;0.30;;
74867;SDS011;63419;42.262;12.210;2023-03-15T11:10:25;1.17;;;0.20;;
74867;SDS011;63419;42.262;12.210;2023-03-15T11:13:08;2.38;;;0.30;;
74867;SDS011;63419;42.262;12.210;2023-03-15T11:16:00;2.90;;;0.88;;
74867;SDS011;63419;42.262;12.210;2023-03-15T11:18:41;1.65;;;0.22;;
74867;SDS011;63419;42.262;12.210;2023-03-15T11:21:18;1.10;;;0.22;;
74867;SDS011;63419;42.262;12.210;2023-03-15T11:23:51;1.67;;;0.40;;
74867;SDS011;63419;42.262;12.210;2023-03-15T11:26:22;2.00;;;0.50;;
74867;SDS011;63419;42.262;12.210;2023-03-15T11:28:59;2.45;;;0.20;;
74867;SDS011;63419;42.262;12.210;2023-03-15T11:31:35;1.50;;;0.20;;
74867;SDS011;63419;42.262;12.210;2023-03-15T11:34:05;2.80;;;0.47;;
74867;SDS011;63419;42.262;12.210;2023-03-15T11:36:41;3.20;;;0.60;;
74867;SDS011;63419;42.262;12.210;2023-03-15T11:39:33;0.98;;;0.20;;
74867;SDS011;63419;42.262;12.210;2023-03-15T11:42:38;1.02;;;0.13;;
74867;SDS011;63419;42.262;12.210;2023-03-15T11:45:39;1.17;;;0.20;;
74867;SDS011;63419;42.262;12.210;2023-03-15T11:48:33;1.60;;;0.50;;
74867;SDS011;63419;42.262;12.210;2023-03-15T11:51:20;3.65;;;0.60;;
74867;SDS011;63419;42.262;12.210;2023-03-15T11:54:00;1.75;;;0.50;;
74867;SDS011;63419;42.262;12.210;2023-03-15T11:59:13;1.73;;;0.30;;
74867;SDS011;63419;42.262;12.210;2023-03-15T12:01:52;4.63;;;0.68;;
74867;SDS011;63419;42.262;12.210;2023-03-15T12:04:46;2.10;;;0.25;;
74867;SDS011;63419;42.262;12.210;2023-03-15T12:22:51;2.45;;;0.50;;
74867;SDS011;63419;42.262;12.210;2023-03-15T12:26:25;3.65;;;0.60;;
74867;SDS011;63419;42.262;12.210;2023-03-15T12:28:41;0.73;;;0.20;;
74867;SDS011;63419;42.262;12.210;2023-03-15T12:31:17;1.33;;;0.30;;
74867;SDS011;63419;42.262;12.210;2023-03-15T12:33:55;1.98;;;0.35;;
74867;SDS011;63419;42.262;12.210;2023-03-15T12:39:59;2.05;;;0.40;;
74867;SDS011;63419;42.262;12.210;2023-03-15T12:45:35;3.20;;;0.50;;
74867;SDS011;63419;42.262;12.210;2023-03-15T13:02:18;3.65;;;1.00;;
74867;SDS011;63419;42.262;12.210;2023-03-15T13:07:55;3.45;;;0.60;;
74867;SDS011;63419;42.262;12.210;2023-03-15T13:19:40;4.28;;;0.60;;
74867;SDS011;63419;42.262;12.210;2023-03-15T13:25:13;2.45;;;0.47;;
74867;SDS011;63419;42.262;12.210;2023-03-15T13:28:21;2.20;;;0.57;;
74867;SDS011;63419;42.262;12.210;2023-03-15T13:30:51;2.65;;;0.60;;
74867;SDS011;63419;42.262;12.210;2023-03-15T13:38:34;2.67;;;0.65;;
74867;SDS011;63419;42.262;12.210;2023-03-15T13:41:29;2.60;;;0.35;;
74867;SDS011;63419;42.262;12.210;2023-03-15T13:43:59;5.90;;;0.98;;
74867;SDS011;63419;42.262;12.210;2023-03-15T13:46:30;3.67;;;1.05;;
74867;SDS011;63419;42.262;12.210;2023-03-15T13:48:59;3.95;;;1.13;;
74867;SDS011;63419;42.262;12.210;2023-03-15T13:54:01;1.60;;;0.30;;
74867;SDS011;63419;42.262;12.210;2023-03-15T13:56:33;4.32;;;0.95;;
74867;SDS011;63419;42.262;12.210;2023-03-15T13:59:14;1.77;;;0.30;;
74867;SDS011;63419;42.262;12.210;2023-03-15T14:01:42;2.47;;;0.50;;
74867;SDS011;63419;42.262;12.210;2023-03-15T14:04:14;2.60;;;0.47;;
74867;SDS011;63419;42.262;12.210;2023-03-15T14:06:44;3.45;;;0.60;;
74867;SDS011;63419;42.262;12.210;2023-03-15T14:09:20;2.33;;;0.50;;
74867;SDS011;63419;42.262;12.210;2023-03-15T14:12:04;2.00;;;0.50;;
74867;SDS011;63419;42.262;12.210;2023-03-15T14:14:48;2.58;;;0.63;;
74867;SDS011;63419;42.262;12.210;2023-03-15T14:17:26;2.75;;;0.45;;
74867;SDS011;63419;42.262;12.210;2023-03-15T14:20:03;1.80;;;0.32;;
74867;SDS011;63419;42.262;12.210;2023-03-15T14:22:40;1.92;;;0.30;;
74867;SDS011;63419;42.262;12.210;2023-03-15T14:25:20;2.25;;;0.55;;
74867;SDS011;63419;42.262;12.210;2023-03-15T14:27:48;3.20;;;0.90;;
74867;SDS011;63419;42.262;12.210;2023-03-15T14:30:17;2.83;;;0.40;;
74867;SDS011;63419;42.262;12.210;2023-03-15T14:32:52;1.60;;;0.57;;
74867;SDS011;63419;42.262;12.210;2023-03-15T14:35:29;3.20;;;0.60;;
74867;SDS011;63419;42.262;12.210;2023-03-15T14:38:16;1.45;;;0.30;;
74867;SDS011;63419;42.262;12.210;2023-03-15T14:40:49;2.00;;;0.30;;
74867;SDS011;63419;42.262;12.210;2023-03-15T14:43:19;2.22;;;0.50;;
74867;SDS011;63419;42.262;12.210;2023-03-15T14:45:46;2.38;;;0.40;;
74867;SDS011;63419;42.262;12.210;2023-03-15T14:50:59;2.65;;;0.70;;
74867;SDS011;63419;42.262;12.210;2023-03-15T14:53:27;2.55;;;0.47;;
74867;SDS011;63419;42.262;12.210;2023-03-15T14:56:02;1.70;;;0.40;;
74867;SDS011;63419;42.262;12.210;2023-03-15T14:58:29;3.17;;;0.60;;
74867;SDS011;63419;42.262;12.210;2023-03-15T15:05:59;2.60;;;0.30;;
74867;SDS011;63419;42.262;12.210;2023-03-15T15:08:28;3.15;;;0.60;;
74867;SDS011;63419;42.262;12.210;2023-03-15T15:10:58;3.17;;;0.50;;
74867;SDS011;63419;42.262;12.210;2023-03-15T15:13:26;2.75;;;0.30;;
74867;SDS011;63419;42.262;12.210;2023-03-15T15:15:55;3.17;;;0.70;;
74867;SDS011;63419;42.262;12.210;2023-03-15T15:18:24;4.47;;;0.57;;
74867;SDS011;63419;42.262;12.210;2023-03-15T15:20:54;3.85;;;1.35;;
74867;SDS011;63419;42.262;12.210;2023-03-15T15:23:26;6.22;;;1.42;;
74867;SDS011;63419;42.262;12.210;2023-03-15T15:26:00;2.58;;;0.52;;
74867;SDS011;63419;42.262;12.210;2023-03-15T15:28:31;2.88;;;0.40;;
74867;SDS011;63419;42.262;12.210;2023-03-15T15:31:03;2.80;;;0.52;;
74867;SDS011;63419;42.262;12.210;2023-03-15T15:33:32;3.20;;;0.70;;
74867;SDS011;63419;42.262;12.210;2023-03-15T15:36:00;4.70;;;0.98;;
74867;SDS011;63419;42.262;12.210;2023-03-15T15:38:31;9.18;;;2.67;;
74867;SDS011;63419;42.262;12.210;2023-03-15T15:41:05;3.50;;;0.70;;
74867;SDS011;63419;42.262;12.210;2023-03-15T15:43:39;3.78;;;1.02;;
74867;SDS011;63419;42.262;12.210;2023-03-15T15:46:08;2.38;;;0.60;;
74867;SDS011;63419;42.262;12.210;2023-03-15T15:48:37;3.03;;;0.88;;
74867;SDS011;63419;42.262;12.210;2023-03-15T15:51:25;2.78;;;0.30;;
74867;SDS011;63419;42.262;12.210;2023-03-15T15:54:03;3.65;;;0.70;;
74867;SDS011;63419;42.262;12.210;2023-03-15T15:56:33;2.25;;;0.47;;
74867;SDS011;63419;42.262;12.210;2023-03-15T15:59:11;3.17;;;0.60;;
74867;SDS011;63419;42.262;12.210;2023-03-15T16:01:43;3.05;;;0.40;;
74867;SDS011;63419;42.262;12.210;2023-03-15T16:04:26;3.92;;;0.60;;
74867;SDS011;63419;42.262;12.210;2023-03-15T16:06:58;2.22;;;0.52;;
74867;SDS011;63419;42.262;12.210;2023-03-15T16:09:29;3.08;;;0.65;;
74867;SDS011;63419;42.262;12.210;2023-03-15T16:12:09;3.90;;;0.70;;
74867;SDS011;63419;42.262;12.210;2023-03-15T16:14:43;5.20;;;1.38;;
74867;SDS011;63419;42.262;12.210;2023-03-15T16:17:16;3.10;;;0.75;;
74867;SDS011;63419;42.262;12.210;2023-03-15T16:19:49;2.67;;;0.50;;
74867;SDS011;63419;42.262;12.210;2023-03-15T16:22:17;4.38;;;0.93;;
74867;SDS011;63419;42.262;12.210;2023-03-15T16:24:49;3.55;;;0.82;;
74867;SDS011;63419;42.262;12.210;2023-03-15T16:27:23;5.45;;;0.70;;
74867;SDS011;63419;42.262;12.210;2023-03-15T16:29:53;3.70;;;0.80;;
74867;SDS011;63419;42.262;12.210;2023-03-15T16:32:22;4.50;;;1.15;;
74867;SDS011;63419;42.262;12.210;2023-03-15T16:35:09;4.57;;;1.30;;
74867;SDS011;63419;42.262;12.210;2023-03-15T16:37:41;2.50;;;0.60;;
74867;SDS011;63419;42.262;12.210;2023-03-15T16:40:17;2.55;;;0.50;;
74867;SDS011;63419;42.262;12.210;2023-03-15T16:42:55;2.65;;;0.70;;
74867;SDS011;63419;42.262;12.210;2023-03-15T16:45:23;2.40;;;0.57;;
74867;SDS011;63419;42.262;12.210;2023-03-15T16:47:51;2.53;;;0.70;;
74867;SDS011;63419;42.262;12.210;2023-03-15T16:50:19;2.08;;;0.60;;
74867;SDS011;63419;42.262;12.210;2023-03-15T16:52:47;2.75;;;0.40;;
74867;SDS011;63419;42.262;12.210;2023-03-15T16:55:23;2.33;;;0.40;;
74867;SDS011;63419;42.262;12.210;2023-03-15T16:57:54;3.83;;;1.15;;
74867;SDS011;63419;42.262;12.210;2023-03-15T17:00:22;4.20;;;1.30;;
74867;SDS011;63419;42.262;12.210;2023-03-15T17:02:51;2.45;;;0.70;;
74867;SDS011;63419;42.262;12.210;2023-03-15T17:05:20;3.83;;;1.00;;
74867;SDS011;63419;42.262;12.210;2023-03-15T17:07:50;2.80;;;0.63;;
74867;SDS011;63419;42.262;12.210;2023-03-15T17:10:23;2.80;;;0.50;;
74867;SDS011;63419;42.262;12.210;2023-03-15T17:12:55;2.65;;;0.50;;
74867;SDS011;63419;42.262;12.210;2023-03-15T17:15:28;2.47;;;0.45;;
74867;SDS011;63419;42.262;12.210;2023-03-15T17:17:56;10.35;;;1.10;;
74867;SDS011;63419;42.262;12.210;2023-03-15T17:20:24;3.42;;;0.77;;
74867;SDS011;63419;42.262;12.210;2023-03-15T17:23:00;3.95;;;0.90;;
74867;SDS011;63419;42.262;12.210;2023-03-15T17:25:30;3.97;;;0.73;;
74867;SDS011;63419;42.262;12.210;2023-03-15T17:27:58;4.22;;;0.70;;
74867;SDS011;63419;42.262;12.210;2023-03-15T17:32:57;3.67;;;0.63;;
74867;SDS011;63419;42.262;12.210;2023-03-15T17:35:29;8.27;;;0.77;;